sensor_id;sensor_type;location;lat;lon;timestamp;P1;durP1;ratioP1;P2;durP2;ratioP2
23642;SDS011;11998;55.788;37.572;2023-02-19T00:00:36;20.00;;;12.40;;
23642;SDS011;11998;55.788;37.572;2023-02-19T00:01:38;23.98;;;14.02;;
23642;SDS011;11998;55.788;37.572;2023-02-19T00:02:40;24.95;;;15.20;;
23642;SDS011;11998;55.788;37.572;2023-02-19T00:03:46;26.50;;;13.87;;
23642;SDS011;11998;55.788;37.572;2023-02-19T00:04:48;25.25;;;14.60;;
23642;SDS011;11998;55.788;37.572;2023-02-19T00:05:49;21.97;;;14.17;;
23642;SDS011;11998;55.788;37.572;2023-02-19T00:06:49;24.73;;;14.37;;
23642;SDS011;11998;55.788;37.572;2023-02-19T00:07:50;24.27;;;14.43;;
23642;SDS011;11998;55.788;37.572;2023-02-19T00:08:51;26.93;;;14.03;;
23642;SDS011;11998;55.788;37.572;2023-02-19T00:09:51;22.73;;;13.30;;
23642;SDS011;11998;55.788;37.572;2023-02-19T00:10:52;22.77;;;14.50;;
23642;SDS011;11998;55.788;37.572;2023-02-19T00:11:52;23.13;;;14.27;;
23642;SDS011;11998;55.788;37.572;2023-02-19T00:12:53;22.88;;;13.32;;
23642;SDS011;11998;55.788;37.572;2023-02-19T00:13:55;24.17;;;13.93;;
23642;SDS011;11998;55.788;37.572;2023-02-19T00:14:57;27.65;;;15.55;;
23642;SDS011;11998;55.788;37.572;2023-02-19T00:15:57;23.80;;;15.13;;
23642;SDS011;11998;55.788;37.572;2023-02-19T00:16:58;21.77;;;14.23;;
23642;SDS011;11998;55.788;37.572;2023-02-19T00:17:58;24.30;;;14.87;;
23642;SDS011;11998;55.788;37.572;2023-02-19T00:18:59;24.57;;;14.80;;
23642;SDS011;11998;55.788;37.572;2023-02-19T00:20:00;25.38;;;14.52;;
23642;SDS011;11998;55.788;37.572;2023-02-19T00:21:01;25.37;;;14.50;;
23642;SDS011;11998;55.788;37.572;2023-02-19T00:22:02;23.42;;;14.77;;
23642;SDS011;11998;55.788;37.572;2023-02-19T00:23:03;25.00;;;14.90;;
23642;SDS011;11998;55.788;37.572;2023-02-19T00:24:04;20.70;;;12.53;;
23642;SDS011;11998;55.788;37.572;2023-02-19T00:25:06;26.48;;;16.67;;
23642;SDS011;11998;55.788;37.572;2023-02-19T00:26:07;26.10;;;14.43;;
23642;SDS011;11998;55.788;37.572;2023-02-19T00:27:10;23.23;;;14.60;;
23642;SDS011;11998;55.788;37.572;2023-02-19T00:28:10;25.40;;;15.67;;
23642;SDS011;11998;55.788;37.572;2023-02-19T00:29:11;24.60;;;15.00;;
23642;SDS011;11998;55.788;37.572;2023-02-19T00:30:17;24.63;;;14.95;;
23642;SDS011;11998;55.788;37.572;2023-02-19T00:31:19;24.40;;;15.27;;
23642;SDS011;11998;55.788;37.572;2023-02-19T00:32:22;24.05;;;14.25;;
23642;SDS011;11998;55.788;37.572;2023-02-19T00:33:22;26.90;;;14.90;;
23642;SDS011;11998;55.788;37.572;2023-02-19T00:34:23;22.83;;;14.43;;
23642;SDS011;11998;55.788;37.572;2023-02-19T00:35:23;23.97;;;14.47;;
23642;SDS011;11998;55.788;37.572;2023-02-19T00:36:24;27.07;;;15.50;;
23642;SDS011;11998;55.788;37.572;2023-02-19T00:37:25;24.98;;;14.48;;
23642;SDS011;11998;55.788;37.572;2023-02-19T00:38:26;25.00;;;15.83;;
23642;SDS011;11998;55.788;37.572;2023-02-19T00:39:26;24.17;;;15.17;;
23642;SDS011;11998;55.788;37.572;2023-02-19T00:40:27;25.57;;;14.60;;
23642;SDS011;11998;55.788;37.572;2023-02-19T00:41:27;23.30;;;14.00;;
23642;SDS011;11998;55.788;37.572;2023-02-19T00:42:29;26.50;;;14.68;;
23642;SDS011;11998;55.788;37.572;2023-02-19T00:43:30;23.93;;;14.40;;
23642;SDS011;11998;55.788;37.572;2023-02-19T00:44:30;22.97;;;13.70;;
23642;SDS011;11998;55.788;37.572;2023-02-19T00:45:31;25.27;;;14.47;;
23642;SDS011;11998;55.788;37.572;2023-02-19T00:46:37;27.30;;;18.20;;
23642;SDS011;11998;55.788;37.572;2023-02-19T00:47:39;24.52;;;15.85;;
23642;SDS011;11998;55.788;37.572;2023-02-19T00:48:39;26.00;;;15.90;;
23642;SDS011;11998;55.788;37.572;2023-02-19T00:49:40;25.63;;;16.90;;
23642;SDS011;11998;55.788;37.572;2023-02-19T00:50:40;26.47;;;14.50;;
23642;SDS011;11998;55.788;37.572;2023-02-19T00:51:41;28.83;;;18.13;;
23642;SDS011;11998;55.788;37.572;2023-02-19T00:52:41;25.70;;;14.73;;
23642;SDS011;11998;55.788;37.572;2023-02-19T00:53:42;25.73;;;15.63;;
23642;SDS011;11998;55.788;37.572;2023-02-19T00:54:42;24.50;;;15.17;;
23642;SDS011;11998;55.788;37.572;2023-02-19T00:55:43;26.70;;;16.50;;
23642;SDS011;11998;55.788;37.572;2023-02-19T00:56:43;25.27;;;15.70;;
23642;SDS011;11998;55.788;37.572;2023-02-19T00:57:44;24.95;;;15.57;;
23642;SDS011;11998;55.788;37.572;2023-02-19T00:58:45;25.20;;;15.10;;
23642;SDS011;11998;55.788;37.572;2023-02-19T00:59:46;50.13;;;18.97;;
23642;SDS011;11998;55.788;37.572;2023-02-19T01:00:46;25.10;;;15.17;;
23642;SDS011;11998;55.788;37.572;2023-02-19T01:01:47;26.40;;;17.17;;
23642;SDS011;11998;55.788;37.572;2023-02-19T01:02:48;27.85;;;16.38;;
23642;SDS011;11998;55.788;37.572;2023-02-19T01:03:49;25.27;;;15.67;;
23642;SDS011;11998;55.788;37.572;2023-02-19T01:04:50;25.33;;;14.73;;
23642;SDS011;11998;55.788;37.572;2023-02-19T01:05:50;23.23;;;15.17;;
23642;SDS011;11998;55.788;37.572;2023-02-19T01:06:52;25.65;;;15.43;;
23642;SDS011;11998;55.788;37.572;2023-02-19T01:07:52;28.03;;;17.10;;
23642;SDS011;11998;55.788;37.572;2023-02-19T01:08:53;24.97;;;14.70;;
23642;SDS011;11998;55.788;37.572;2023-02-19T01:09:53;23.20;;;14.47;;
23642;SDS011;11998;55.788;37.572;2023-02-19T01:10:54;25.60;;;14.70;;
23642;SDS011;11998;55.788;37.572;2023-02-19T01:11:54;24.37;;;14.57;;
23642;SDS011;11998;55.788;37.572;2023-02-19T01:12:55;22.33;;;14.10;;
23642;SDS011;11998;55.788;37.572;2023-02-19T01:13:56;26.70;;;16.53;;
23642;SDS011;11998;55.788;37.572;2023-02-19T01:14:57;27.15;;;16.05;;
23642;SDS011;11998;55.788;37.572;2023-02-19T01:16:04;25.20;;;16.10;;
23642;SDS011;11998;55.788;37.572;2023-02-19T01:17:11;24.92;;;15.43;;
23642;SDS011;11998;55.788;37.572;2023-02-19T01:18:12;25.90;;;15.40;;
23642;SDS011;11998;55.788;37.572;2023-02-19T01:19:12;27.70;;;15.77;;
23642;SDS011;11998;55.788;37.572;2023-02-19T01:20:13;27.57;;;15.37;;
23642;SDS011;11998;55.788;37.572;2023-02-19T01:21:15;25.63;;;14.80;;
23642;SDS011;11998;55.788;37.572;2023-02-19T01:22:17;22.95;;;14.23;;
23642;SDS011;11998;55.788;37.572;2023-02-19T01:23:18;27.63;;;16.10;;
23642;SDS011;11998;55.788;37.572;2023-02-19T01:24:18;26.53;;;15.47;;
23642;SDS011;11998;55.788;37.572;2023-02-19T01:25:19;25.33;;;14.77;;
23642;SDS011;11998;55.788;37.572;2023-02-19T01:26:21;25.50;;;15.00;;
23642;SDS011;11998;55.788;37.572;2023-02-19T01:27:27;25.38;;;14.93;;
23642;SDS011;11998;55.788;37.572;2023-02-19T01:28:27;25.03;;;14.47;;
23642;SDS011;11998;55.788;37.572;2023-02-19T01:29:28;28.23;;;15.77;;
23642;SDS011;11998;55.788;37.572;2023-02-19T01:30:29;24.87;;;14.97;;
23642;SDS011;11998;55.788;37.572;2023-02-19T01:31:30;24.20;;;14.77;;
23642;SDS011;11998;55.788;37.572;2023-02-19T01:32:30;26.57;;;16.10;;
23642;SDS011;11998;55.788;37.572;2023-02-19T01:33:31;25.10;;;15.33;;
23642;SDS011;11998;55.788;37.572;2023-02-19T01:34:32;23.85;;;14.95;;
23642;SDS011;11998;55.788;37.572;2023-02-19T01:35:36;31.02;;;15.85;;
23642;SDS011;11998;55.788;37.572;2023-02-19T01:36:37;26.90;;;15.13;;
23642;SDS011;11998;55.788;37.572;2023-02-19T01:37:38;25.67;;;14.87;;
23642;SDS011;11998;55.788;37.572;2023-02-19T01:38:38;28.60;;;16.47;;
23642;SDS011;11998;55.788;37.572;2023-02-19T01:39:39;26.00;;;16.03;;
23642;SDS011;11998;55.788;37.572;2023-02-19T01:40:39;27.83;;;16.23;;
23642;SDS011;11998;55.788;37.572;2023-02-19T01:41:40;27.27;;;16.63;;
23642;SDS011;11998;55.788;37.572;2023-02-19T01:42:42;25.90;;;14.35;;
23642;SDS011;11998;55.788;37.572;2023-02-19T01:44:03;26.00;;;15.98;;
23642;SDS011;11998;55.788;37.572;2023-02-19T01:46:43;26.40;;;14.23;;
23642;SDS011;11998;55.788;37.572;2023-02-19T01:47:46;24.70;;;13.95;;
23642;SDS011;11998;55.788;37.572;2023-02-19T01:48:52;25.48;;;14.38;;
23642;SDS011;11998;55.788;37.572;2023-02-19T01:49:53;24.73;;;14.55;;
23642;SDS011;11998;55.788;37.572;2023-02-19T01:50:57;23.33;;;14.93;;
23642;SDS011;11998;55.788;37.572;2023-02-19T01:52:04;24.92;;;14.43;;
23642;SDS011;11998;55.788;37.572;2023-02-19T01:53:21;23.70;;;13.30;;
23642;SDS011;11998;55.788;37.572;2023-02-19T01:54:26;24.90;;;15.02;;
23642;SDS011;11998;55.788;37.572;2023-02-19T01:55:30;26.70;;;13.43;;
23642;SDS011;11998;55.788;37.572;2023-02-19T01:56:32;20.58;;;13.27;;
23642;SDS011;11998;55.788;37.572;2023-02-19T01:57:36;25.05;;;13.82;;
23642;SDS011;11998;55.788;37.572;2023-02-19T01:58:41;22.50;;;13.35;;
23642;SDS011;11998;55.788;37.572;2023-02-19T01:59:41;22.77;;;13.57;;
23642;SDS011;11998;55.788;37.572;2023-02-19T02:00:43;23.23;;;14.75;;
23642;SDS011;11998;55.788;37.572;2023-02-19T02:01:43;20.77;;;14.43;;
23642;SDS011;11998;55.788;37.572;2023-02-19T02:02:50;22.03;;;13.27;;
23642;SDS011;11998;55.788;37.572;2023-02-19T02:03:53;22.80;;;13.60;;
23642;SDS011;11998;55.788;37.572;2023-02-19T02:04:55;23.33;;;14.63;;
23642;SDS011;11998;55.788;37.572;2023-02-19T02:07:01;22.95;;;11.95;;
23642;SDS011;11998;55.788;37.572;2023-02-19T02:08:23;19.85;;;12.73;;
23642;SDS011;11998;55.788;37.572;2023-02-19T02:09:44;21.73;;;13.95;;
23642;SDS011;11998;55.788;37.572;2023-02-19T02:11:03;22.25;;;12.73;;
23642;SDS011;11998;55.788;37.572;2023-02-19T02:12:04;20.43;;;12.13;;
23642;SDS011;11998;55.788;37.572;2023-02-19T02:13:05;22.40;;;13.37;;
23642;SDS011;11998;55.788;37.572;2023-02-19T02:14:05;22.70;;;13.53;;
23642;SDS011;11998;55.788;37.572;2023-02-19T02:15:06;22.57;;;13.10;;
23642;SDS011;11998;55.788;37.572;2023-02-19T02:16:12;22.85;;;13.82;;
23642;SDS011;11998;55.788;37.572;2023-02-19T02:21:03;22.40;;;13.38;;
23642;SDS011;11998;55.788;37.572;2023-02-19T02:23:28;23.40;;;13.52;;
23642;SDS011;11998;55.788;37.572;2023-02-19T02:26:04;20.60;;;12.88;;
23642;SDS011;11998;55.788;37.572;2023-02-19T02:31:22;21.55;;;10.73;;
23642;SDS011;11998;55.788;37.572;2023-02-19T02:32:29;17.80;;;10.98;;
23642;SDS011;11998;55.788;37.572;2023-02-19T02:34:40;18.77;;;10.93;;
23642;SDS011;11998;55.788;37.572;2023-02-19T02:35:55;20.60;;;12.38;;
23642;SDS011;11998;55.788;37.572;2023-02-19T02:36:59;17.25;;;10.70;;
23642;SDS011;11998;55.788;37.572;2023-02-19T02:38:03;18.30;;;11.40;;
23642;SDS011;11998;55.788;37.572;2023-02-19T02:39:07;20.35;;;11.57;;
23642;SDS011;11998;55.788;37.572;2023-02-19T02:40:11;19.58;;;12.50;;
23642;SDS011;11998;55.788;37.572;2023-02-19T02:41:12;22.80;;;13.00;;
23642;SDS011;11998;55.788;37.572;2023-02-19T02:42:14;18.65;;;11.30;;
23642;SDS011;11998;55.788;37.572;2023-02-19T02:43:27;19.05;;;10.65;;
23642;SDS011;11998;55.788;37.572;2023-02-19T02:44:33;19.70;;;11.43;;
23642;SDS011;11998;55.788;37.572;2023-02-19T02:45:35;20.92;;;11.63;;
23642;SDS011;11998;55.788;37.572;2023-02-19T02:46:37;19.77;;;12.07;;
23642;SDS011;11998;55.788;37.572;2023-02-19T02:47:51;21.88;;;11.25;;
23642;SDS011;11998;55.788;37.572;2023-02-19T02:48:57;17.75;;;10.60;;
23642;SDS011;11998;55.788;37.572;2023-02-19T02:50:21;18.65;;;11.20;;
23642;SDS011;11998;55.788;37.572;2023-02-19T02:51:29;20.40;;;12.25;;
23642;SDS011;11998;55.788;37.572;2023-02-19T02:52:35;18.25;;;11.30;;
23642;SDS011;11998;55.788;37.572;2023-02-19T02:55:27;18.35;;;11.65;;
23642;SDS011;11998;55.788;37.572;2023-02-19T02:56:33;20.20;;;11.02;;
23642;SDS011;11998;55.788;37.572;2023-02-19T02:57:34;17.77;;;10.77;;
23642;SDS011;11998;55.788;37.572;2023-02-19T02:58:35;17.57;;;11.40;;
23642;SDS011;11998;55.788;37.572;2023-02-19T02:59:37;21.42;;;11.93;;
23642;SDS011;11998;55.788;37.572;2023-02-19T03:00:39;19.30;;;11.95;;
23642;SDS011;11998;55.788;37.572;2023-02-19T03:02:04;19.08;;;12.20;;
23642;SDS011;11998;55.788;37.572;2023-02-19T03:03:09;20.88;;;12.30;;
23642;SDS011;11998;55.788;37.572;2023-02-19T03:04:13;17.80;;;11.65;;
23642;SDS011;11998;55.788;37.572;2023-02-19T03:05:21;21.25;;;12.13;;
23642;SDS011;11998;55.788;37.572;2023-02-19T03:06:41;88.38;;;18.80;;
23642;SDS011;11998;55.788;37.572;2023-02-19T03:07:49;21.42;;;11.55;;
23642;SDS011;11998;55.788;37.572;2023-02-19T03:10:26;22.42;;;11.75;;
23642;SDS011;11998;55.788;37.572;2023-02-19T03:12:56;20.35;;;11.63;;
23642;SDS011;11998;55.788;37.572;2023-02-19T03:14:22;22.20;;;13.15;;
23642;SDS011;11998;55.788;37.572;2023-02-19T03:15:50;18.13;;;11.98;;
23642;SDS011;11998;55.788;37.572;2023-02-19T03:17:16;21.13;;;12.70;;
23642;SDS011;11998;55.788;37.572;2023-02-19T03:18:39;20.90;;;11.70;;
23642;SDS011;11998;55.788;37.572;2023-02-19T03:20:03;23.40;;;12.73;;
23642;SDS011;11998;55.788;37.572;2023-02-19T03:21:06;69.15;;;16.70;;
23642;SDS011;11998;55.788;37.572;2023-02-19T03:22:19;21.17;;;12.00;;
23642;SDS011;11998;55.788;37.572;2023-02-19T03:23:25;25.08;;;13.15;;
23642;SDS011;11998;55.788;37.572;2023-02-19T03:24:49;34.53;;;15.10;;
23642;SDS011;11998;55.788;37.572;2023-02-19T03:26:12;20.30;;;12.00;;
23642;SDS011;11998;55.788;37.572;2023-02-19T03:27:14;23.17;;;14.15;;
23642;SDS011;11998;55.788;37.572;2023-02-19T03:28:19;22.15;;;14.65;;
23642;SDS011;11998;55.788;37.572;2023-02-19T03:29:42;22.48;;;13.18;;
23642;SDS011;11998;55.788;37.572;2023-02-19T03:30:46;22.45;;;13.70;;
23642;SDS011;11998;55.788;37.572;2023-02-19T03:31:52;32.63;;;14.35;;
23642;SDS011;11998;55.788;37.572;2023-02-19T03:33:03;20.88;;;11.80;;
23642;SDS011;11998;55.788;37.572;2023-02-19T03:34:11;54.70;;;12.98;;
23642;SDS011;11998;55.788;37.572;2023-02-19T03:35:20;21.98;;;10.55;;
23642;SDS011;11998;55.788;37.572;2023-02-19T03:36:23;20.92;;;11.05;;
23642;SDS011;11998;55.788;37.572;2023-02-19T03:39:19;26.13;;;13.43;;
23642;SDS011;11998;55.788;37.572;2023-02-19T03:40:21;23.75;;;13.27;;
23642;SDS011;11998;55.788;37.572;2023-02-19T03:41:34;24.55;;;11.82;;
23642;SDS011;11998;55.788;37.572;2023-02-19T03:46:30;27.57;;;13.13;;
23642;SDS011;11998;55.788;37.572;2023-02-19T03:47:42;20.88;;;11.57;;
23642;SDS011;11998;55.788;37.572;2023-02-19T03:49:04;23.75;;;12.82;;
23642;SDS011;11998;55.788;37.572;2023-02-19T03:50:17;26.90;;;12.98;;
23642;SDS011;11998;55.788;37.572;2023-02-19T03:53:23;23.55;;;12.95;;
23642;SDS011;11998;55.788;37.572;2023-02-19T03:54:33;23.65;;;11.13;;
23642;SDS011;11998;55.788;37.572;2023-02-19T03:55:42;19.88;;;11.30;;
23642;SDS011;11998;55.788;37.572;2023-02-19T03:58:04;20.77;;;11.75;;
23642;SDS011;11998;55.788;37.572;2023-02-19T03:59:14;23.35;;;11.95;;
23642;SDS011;11998;55.788;37.572;2023-02-19T04:00:21;18.42;;;10.40;;
23642;SDS011;11998;55.788;37.572;2023-02-19T04:01:38;21.35;;;11.93;;
23642;SDS011;11998;55.788;37.572;2023-02-19T04:02:46;24.60;;;12.48;;
23642;SDS011;11998;55.788;37.572;2023-02-19T04:04:08;25.08;;;14.00;;
23642;SDS011;11998;55.788;37.572;2023-02-19T04:05:34;20.83;;;12.50;;
23642;SDS011;11998;55.788;37.572;2023-02-19T04:06:39;23.73;;;13.88;;
23642;SDS011;11998;55.788;37.572;2023-02-19T04:07:43;24.48;;;14.88;;
23642;SDS011;11998;55.788;37.572;2023-02-19T04:08:48;26.33;;;15.55;;
23642;SDS011;11998;55.788;37.572;2023-02-19T04:09:53;22.02;;;13.52;;
23642;SDS011;11998;55.788;37.572;2023-02-19T04:10:54;26.10;;;15.07;;
23642;SDS011;11998;55.788;37.572;2023-02-19T04:11:59;24.65;;;14.88;;
23642;SDS011;11998;55.788;37.572;2023-02-19T04:13:08;23.10;;;14.27;;
23642;SDS011;11998;55.788;37.572;2023-02-19T04:14:15;27.30;;;16.70;;
23642;SDS011;11998;55.788;37.572;2023-02-19T04:15:25;24.13;;;14.02;;
23642;SDS011;11998;55.788;37.572;2023-02-19T04:16:28;23.98;;;14.88;;
23642;SDS011;11998;55.788;37.572;2023-02-19T04:17:43;24.80;;;14.75;;
23642;SDS011;11998;55.788;37.572;2023-02-19T04:18:50;26.70;;;15.50;;
23642;SDS011;11998;55.788;37.572;2023-02-19T04:19:53;25.45;;;14.30;;
23642;SDS011;11998;55.788;37.572;2023-02-19T04:20:57;28.05;;;16.85;;
23642;SDS011;11998;55.788;37.572;2023-02-19T04:21:59;25.10;;;15.45;;
23642;SDS011;11998;55.788;37.572;2023-02-19T04:23:00;49.28;;;16.77;;
23642;SDS011;11998;55.788;37.572;2023-02-19T04:24:02;22.10;;;13.23;;
23642;SDS011;11998;55.788;37.572;2023-02-19T04:25:08;21.73;;;12.05;;
23642;SDS011;11998;55.788;37.572;2023-02-19T04:26:08;24.70;;;13.53;;
23642;SDS011;11998;55.788;37.572;2023-02-19T04:27:10;25.60;;;13.52;;
23642;SDS011;11998;55.788;37.572;2023-02-19T04:28:12;27.37;;;15.30;;
23642;SDS011;11998;55.788;37.572;2023-02-19T04:29:14;26.45;;;13.82;;
23642;SDS011;11998;55.788;37.572;2023-02-19T04:30:14;24.97;;;13.43;;
23642;SDS011;11998;55.788;37.572;2023-02-19T04:31:15;22.83;;;12.75;;
23642;SDS011;11998;55.788;37.572;2023-02-19T04:32:16;21.60;;;12.53;;
23642;SDS011;11998;55.788;37.572;2023-02-19T04:33:16;22.17;;;11.43;;
23642;SDS011;11998;55.788;37.572;2023-02-19T04:34:17;22.00;;;11.30;;
23642;SDS011;11998;55.788;37.572;2023-02-19T04:35:17;20.97;;;11.57;;
23642;SDS011;11998;55.788;37.572;2023-02-19T04:36:18;23.30;;;13.03;;
23642;SDS011;11998;55.788;37.572;2023-02-19T04:37:18;22.83;;;11.93;;
23642;SDS011;11998;55.788;37.572;2023-02-19T04:38:19;22.03;;;11.60;;
23642;SDS011;11998;55.788;37.572;2023-02-19T04:39:19;22.93;;;11.77;;
23642;SDS011;11998;55.788;37.572;2023-02-19T04:40:20;24.60;;;12.13;;
23642;SDS011;11998;55.788;37.572;2023-02-19T04:41:20;28.07;;;11.80;;
23642;SDS011;11998;55.788;37.572;2023-02-19T04:42:21;22.40;;;12.20;;
23642;SDS011;11998;55.788;37.572;2023-02-19T04:43:21;24.37;;;11.50;;
23642;SDS011;11998;55.788;37.572;2023-02-19T04:44:22;24.73;;;12.90;;
23642;SDS011;11998;55.788;37.572;2023-02-19T04:45:23;25.23;;;13.43;;
23642;SDS011;11998;55.788;37.572;2023-02-19T04:46:23;25.90;;;14.07;;
23642;SDS011;11998;55.788;37.572;2023-02-19T04:47:24;26.27;;;12.73;;
23642;SDS011;11998;55.788;37.572;2023-02-19T04:48:24;22.87;;;12.60;;
23642;SDS011;11998;55.788;37.572;2023-02-19T04:49:25;25.23;;;14.17;;
23642;SDS011;11998;55.788;37.572;2023-02-19T04:50:25;27.97;;;13.60;;
23642;SDS011;11998;55.788;37.572;2023-02-19T04:51:26;22.50;;;12.80;;
23642;SDS011;11998;55.788;37.572;2023-02-19T04:52:26;26.00;;;13.40;;
23642;SDS011;11998;55.788;37.572;2023-02-19T04:53:27;26.17;;;13.17;;
23642;SDS011;11998;55.788;37.572;2023-02-19T04:54:27;27.73;;;13.23;;
23642;SDS011;11998;55.788;37.572;2023-02-19T04:55:28;25.93;;;13.83;;
23642;SDS011;11998;55.788;37.572;2023-02-19T04:56:28;27.33;;;13.00;;
23642;SDS011;11998;55.788;37.572;2023-02-19T04:57:29;25.67;;;13.70;;
23642;SDS011;11998;55.788;37.572;2023-02-19T04:58:29;27.13;;;14.33;;
23642;SDS011;11998;55.788;37.572;2023-02-19T04:59:30;24.20;;;13.23;;
23642;SDS011;11998;55.788;37.572;2023-02-19T05:00:31;24.57;;;13.43;;
23642;SDS011;11998;55.788;37.572;2023-02-19T05:01:32;27.83;;;14.15;;
23642;SDS011;11998;55.788;37.572;2023-02-19T05:02:33;25.60;;;12.73;;
23642;SDS011;11998;55.788;37.572;2023-02-19T05:03:34;24.95;;;13.77;;
23642;SDS011;11998;55.788;37.572;2023-02-19T05:04:35;24.17;;;13.13;;
23642;SDS011;11998;55.788;37.572;2023-02-19T05:05:36;25.93;;;13.67;;
23642;SDS011;11998;55.788;37.572;2023-02-19T05:06:36;24.03;;;14.20;;
23642;SDS011;11998;55.788;37.572;2023-02-19T05:07:37;26.20;;;14.37;;
23642;SDS011;11998;55.788;37.572;2023-02-19T05:08:39;24.50;;;14.10;;
23642;SDS011;11998;55.788;37.572;2023-02-19T05:09:40;26.02;;;13.77;;
23642;SDS011;11998;55.788;37.572;2023-02-19T05:10:41;27.13;;;13.63;;
23642;SDS011;11998;55.788;37.572;2023-02-19T05:11:41;26.47;;;13.93;;
23642;SDS011;11998;55.788;37.572;2023-02-19T05:12:42;24.43;;;13.50;;
23642;SDS011;11998;55.788;37.572;2023-02-19T05:13:42;27.90;;;16.00;;
23642;SDS011;11998;55.788;37.572;2023-02-19T05:14:43;24.60;;;14.87;;
23642;SDS011;11998;55.788;37.572;2023-02-19T05:15:52;38.73;;;16.67;;
23642;SDS011;11998;55.788;37.572;2023-02-19T05:16:54;25.08;;;14.23;;
23642;SDS011;11998;55.788;37.572;2023-02-19T05:17:54;24.13;;;13.43;;
23642;SDS011;11998;55.788;37.572;2023-02-19T05:18:55;27.80;;;15.20;;
23642;SDS011;11998;55.788;37.572;2023-02-19T05:19:55;26.33;;;14.43;;
23642;SDS011;11998;55.788;37.572;2023-02-19T05:20:56;26.17;;;13.93;;
23642;SDS011;11998;55.788;37.572;2023-02-19T05:21:57;27.08;;;14.63;;
23642;SDS011;11998;55.788;37.572;2023-02-19T05:22:58;21.83;;;13.53;;
23642;SDS011;11998;55.788;37.572;2023-02-19T05:23:58;27.03;;;15.00;;
23642;SDS011;11998;55.788;37.572;2023-02-19T05:24:59;24.40;;;14.87;;
23642;SDS011;11998;55.788;37.572;2023-02-19T05:26:03;26.00;;;15.57;;
23642;SDS011;11998;55.788;37.572;2023-02-19T05:27:08;24.42;;;15.50;;
23642;SDS011;11998;55.788;37.572;2023-02-19T05:28:09;24.37;;;15.03;;
23642;SDS011;11998;55.788;37.572;2023-02-19T05:29:19;26.45;;;15.50;;
23642;SDS011;11998;55.788;37.572;2023-02-19T05:30:19;33.63;;;15.57;;
23642;SDS011;11998;55.788;37.572;2023-02-19T05:31:20;26.10;;;14.70;;
23642;SDS011;11998;55.788;37.572;2023-02-19T05:32:21;29.23;;;15.18;;
23642;SDS011;11998;55.788;37.572;2023-02-19T05:33:22;22.70;;;14.17;;
23642;SDS011;11998;55.788;37.572;2023-02-19T05:34:24;27.20;;;15.90;;
23642;SDS011;11998;55.788;37.572;2023-02-19T05:35:24;34.53;;;17.33;;
23642;SDS011;11998;55.788;37.572;2023-02-19T05:36:25;27.07;;;15.07;;
23642;SDS011;11998;55.788;37.572;2023-02-19T05:37:25;25.70;;;16.43;;
23642;SDS011;11998;55.788;37.572;2023-02-19T05:38:26;27.20;;;14.90;;
23642;SDS011;11998;55.788;37.572;2023-02-19T05:39:27;31.30;;;16.00;;
23642;SDS011;11998;55.788;37.572;2023-02-19T05:40:27;22.33;;;13.73;;
23642;SDS011;11998;55.788;37.572;2023-02-19T05:41:28;25.83;;;14.57;;
23642;SDS011;11998;55.788;37.572;2023-02-19T05:42:29;25.73;;;14.25;;
23642;SDS011;11998;55.788;37.572;2023-02-19T05:43:29;23.07;;;13.87;;
23642;SDS011;11998;55.788;37.572;2023-02-19T05:44:30;25.37;;;14.37;;
23642;SDS011;11998;55.788;37.572;2023-02-19T05:45:31;50.60;;;16.13;;
23642;SDS011;11998;55.788;37.572;2023-02-19T05:46:32;25.17;;;14.05;;
23642;SDS011;11998;55.788;37.572;2023-02-19T05:47:32;26.33;;;14.10;;
23642;SDS011;11998;55.788;37.572;2023-02-19T05:48:33;24.40;;;14.43;;
23642;SDS011;11998;55.788;37.572;2023-02-19T05:49:34;23.13;;;13.77;;
23642;SDS011;11998;55.788;37.572;2023-02-19T05:50:35;24.50;;;13.70;;
23642;SDS011;11998;55.788;37.572;2023-02-19T05:51:36;25.73;;;13.88;;
23642;SDS011;11998;55.788;37.572;2023-02-19T05:52:38;23.23;;;13.27;;
23642;SDS011;11998;55.788;37.572;2023-02-19T05:53:38;21.60;;;13.43;;
23642;SDS011;11998;55.788;37.572;2023-02-19T05:54:39;20.05;;;12.77;;
23642;SDS011;11998;55.788;37.572;2023-02-19T05:55:40;39.67;;;14.13;;
23642;SDS011;11998;55.788;37.572;2023-02-19T05:56:41;22.30;;;12.63;;
23642;SDS011;11998;55.788;37.572;2023-02-19T05:57:42;22.60;;;14.37;;
23642;SDS011;11998;55.788;37.572;2023-02-19T05:58:44;26.23;;;13.68;;
23642;SDS011;11998;55.788;37.572;2023-02-19T05:59:44;22.13;;;13.83;;
23642;SDS011;11998;55.788;37.572;2023-02-19T06:00:45;21.30;;;13.53;;
23642;SDS011;11998;55.788;37.572;2023-02-19T06:01:46;20.10;;;12.27;;
23642;SDS011;11998;55.788;37.572;2023-02-19T06:02:47;21.52;;;13.07;;
23642;SDS011;11998;55.788;37.572;2023-02-19T06:03:48;21.83;;;12.67;;
23642;SDS011;11998;55.788;37.572;2023-02-19T06:04:48;21.03;;;12.40;;
23642;SDS011;11998;55.788;37.572;2023-02-19T06:05:49;21.33;;;12.47;;
23642;SDS011;11998;55.788;37.572;2023-02-19T06:06:49;54.80;;;18.13;;
23642;SDS011;11998;55.788;37.572;2023-02-19T06:07:50;23.23;;;14.07;;
23642;SDS011;11998;55.788;37.572;2023-02-19T06:08:50;24.20;;;13.53;;
23642;SDS011;11998;55.788;37.572;2023-02-19T06:09:51;27.73;;;13.90;;
23642;SDS011;11998;55.788;37.572;2023-02-19T06:10:51;88.37;;;18.63;;
23642;SDS011;11998;55.788;37.572;2023-02-19T06:11:52;19.77;;;12.80;;
23642;SDS011;11998;55.788;37.572;2023-02-19T06:12:53;22.33;;;12.53;;
23642;SDS011;11998;55.788;37.572;2023-02-19T06:13:53;22.47;;;12.90;;
23642;SDS011;11998;55.788;37.572;2023-02-19T06:14:54;18.33;;;9.53;;
23642;SDS011;11998;55.788;37.572;2023-02-19T06:15:54;58.00;;;13.20;;
23642;SDS011;11998;55.788;37.572;2023-02-19T06:16:58;21.73;;;11.63;;
23642;SDS011;11998;55.788;37.572;2023-02-19T06:17:59;20.52;;;11.20;;
23642;SDS011;11998;55.788;37.572;2023-02-19T06:19:03;21.30;;;11.02;;
23642;SDS011;11998;55.788;37.572;2023-02-19T06:20:04;19.83;;;10.95;;
23642;SDS011;11998;55.788;37.572;2023-02-19T06:21:05;18.83;;;10.43;;
23642;SDS011;11998;55.788;37.572;2023-02-19T06:22:08;20.88;;;11.57;;
23642;SDS011;11998;55.788;37.572;2023-02-19T06:23:09;21.63;;;12.75;;
23642;SDS011;11998;55.788;37.572;2023-02-19T06:24:09;18.17;;;9.83;;
23642;SDS011;11998;55.788;37.572;2023-02-19T06:25:10;17.87;;;11.00;;
23642;SDS011;11998;55.788;37.572;2023-02-19T06:26:12;19.52;;;10.70;;
23642;SDS011;11998;55.788;37.572;2023-02-19T06:27:13;19.60;;;11.68;;
23642;SDS011;11998;55.788;37.572;2023-02-19T06:28:14;23.85;;;11.98;;
23642;SDS011;11998;55.788;37.572;2023-02-19T06:29:15;20.80;;;12.00;;
23642;SDS011;11998;55.788;37.572;2023-02-19T06:30:16;23.38;;;13.75;;
23642;SDS011;11998;55.788;37.572;2023-02-19T06:31:17;27.03;;;14.17;;
23642;SDS011;11998;55.788;37.572;2023-02-19T06:32:19;22.20;;;12.82;;
23642;SDS011;11998;55.788;37.572;2023-02-19T06:33:19;21.87;;;13.57;;
23642;SDS011;11998;55.788;37.572;2023-02-19T06:34:20;21.07;;;13.13;;